Flight Track Log - Related Links

Times and Time Zones

All times are in EDT time to prevent confusion due to time zone crossing. See the UAL407 flight status page for this flight to view local times or setup timezone preferences in your user account.

Time Position Orientation Groundspeed Altitude Reporting Facility
EDT Latitude Longitude Course Direction KTS MPH feet Rate Location/Type
Tue 09:43:15 PM 39.8500 -104.7500 281° West 175 201 7,000  Level Denver TRACON
Tue 09:44:15 PM 39.8667 -104.8167 288° West 220 253 7,800 1,096 Climbing Denver TRACON
Tue 09:45:00 PM 39.8896 -105.0978 276° West  Level FlightAware Approximate
Tue 09:45:10 PM 39.9028 -104.8853 304° West 251 289 9,100  Level Denver Center
Tue 09:46:00 PM 39.9000 -105.2422 270° West  Level FlightAware Approximate
Tue 09:46:11 PM 39.9358 -104.9675 298° West 299 344 10,600  Level Denver Center
Tue 09:47:00 PM 39.9123 -105.3858 281° West  Level FlightAware Approximate
Tue 09:47:13 PM 39.9447 -105.1150 275° West 336 387 12,700  Level Denver Center
Tue 09:48:00 PM 39.9327 -105.5285 281° West  Level FlightAware Approximate
Tue 09:48:15 PM 39.9522 -105.2431 274° West 351 404 16,500  Level Denver Center
Tue 09:49:16 PM 39.9578 -105.3664 273° West 343 395 19,500 2,146 Climbing Denver Center
Tue 09:50:18 PM 39.9653 -105.5156 274° West 384 442 20,900 1,220 Climbing Denver Center
Tue 09:51:19 PM 39.9725 -105.6669 274° West 418 481 22,000 1,366 Climbing Denver Center
Tue 09:52:21 PM 39.9750 -105.8297 271° West 430 495 23,700 1,355 Climbing Denver Center
Tue 09:53:23 PM 39.9778 -105.9847 271° West 430 495 24,800 976 Climbing Denver Center
Tue 09:54:24 PM 39.9894 -106.1092 277° West 433 498 25,700 1,024 Climbing Denver Center
Tue 09:55:26 PM 40.0739 -106.2667 305° West 440 506 26,900 976 Climbing Denver Center
Tue 09:56:27 PM 40.1461 -106.3978 306° West 446 513 27,700 927 Climbing Denver Center
Tue 09:57:29 PM 40.2169 -106.5308 305° West 445 512 28,800 1,016 Climbing Denver Center
Tue 09:58:31 PM 40.2867 -106.6586 306° West 449 517 29,800 1,317 Climbing Denver Center
Tue 09:59:32 PM 40.3708 -106.8161 305° West 444 511 31,500 1,065 Climbing Denver Center
Tue 10:00:35 PM 40.4378 -106.9461 304° West 422 486 32,000 240 Climbing Denver Center
Tue 10:01:37 PM 40.5069 -107.0678 307° West 428 493 32,000  Level Denver Center
Tue 10:02:39 PM 40.5814 -107.2106 305° West 427 491 32,000  Level Denver Center
Tue 10:03:40 PM 40.6444 -107.3342 304° West 427 491 32,000  Level Denver Center
Tue 10:04:42 PM 40.7089 -107.4553 305° West 423 487 32,000  Level Denver Center
Tue 10:05:43 PM 40.7828 -107.5964 305° West 429 494 32,000  Level Denver Center
Tue 10:06:45 PM 40.8569 -107.7394 304° West 425 489 32,000  Level Denver Center
Tue 10:07:47 PM 40.9208 -107.8622 305° West 424 488 32,000  Level Denver Center
Tue 10:08:48 PM 40.9842 -107.9858 304° West 423 487 32,000 -49 Level Denver Center
Tue 10:09:50 PM 41.0583 -108.1275 305° West 419 482 31,900  Descending Denver Center
Tue 10:10:52 PM 41.1208 -108.2531 303° West 426 490 32,000 49 Climbing Denver Center
Tue 10:11:53 PM 41.1886 -108.4039 301° West 425 489 32,000  Level Denver Center
Tue 10:12:55 PM 41.2286 -108.5422 291° West 420 483 32,000  Level Denver Center
Tue 10:13:57 PM 41.2806 -108.7042 293° West 426 490 32,000  Level Denver Center
Tue 10:14:58 PM 41.3247 -108.8428 293° West 426 490 32,000  Level Denver Center
Tue 10:16:00 PM 41.3694 -108.9831 293° West 424 488 32,000 -41 Level Denver Center
Tue 10:17:23 PM 41.4408 -109.2092 293° West 446 513 31,900  Descending Salt Lake Center
Tue 10:18:24 PM 41.4881 -109.3475 295° West 434 499 32,000 49 Climbing Salt Lake Center
Tue 10:19:26 PM 41.5389 -109.4842 296° West 429 494 32,000  Level Salt Lake Center
Tue 10:20:28 PM 41.6086 -109.6406 301° West 438 504 32,000  Level Salt Lake Center
Tue 10:21:29 PM 41.6728 -109.7692 304° West 436 502 32,000  Level Salt Lake Center
Tue 10:22:31 PM 41.7492 -109.9211 304° West 439 505 32,000 -48 Level Salt Lake Center
Tue 10:23:33 PM 41.8144 -110.0492 304° West 437 503 31,900  Descending Salt Lake Center
Tue 10:24:34 PM 41.8911 -110.1994 304° West 437 503 32,000 49 Climbing Salt Lake Center
Tue 10:25:36 PM 41.9561 -110.3300 304° West 438 504 32,000  Level Salt Lake Center
Tue 10:26:38 PM 42.0206 -110.4594 304° West 434 499 32,000 -49 Level Salt Lake Center
Tue 10:27:39 PM 42.0961 -110.6097 304° West 435 501 31,900  Descending Salt Lake Center
Tue 10:28:41 PM 42.1614 -110.7403 304° West 438 504 32,000 48 Climbing Salt Lake Center
Tue 10:29:43 PM 42.2361 -110.8939 303° West 438 504 32,000  Level Salt Lake Center
Tue 10:30:44 PM 42.2986 -111.0217 304° West 439 505 32,000  Level Salt Lake Center
Tue 10:31:46 PM 42.3656 -111.1583 304° West 438 504 32,000  Level Salt Lake Center
Tue 10:32:47 PM 42.4319 -111.2936 304° West 435 501 32,000  Level Salt Lake Center
Tue 10:33:49 PM 42.5114 -111.4589 303° West 437 503 32,000  Level Salt Lake Center
Tue 10:34:51 PM 42.5775 -111.5944 304° West 435 501 32,000  Level Salt Lake Center
Tue 10:35:52 PM 42.6439 -111.7300 304° West 434 499 32,000 -49 Level Salt Lake Center
Tue 10:36:54 PM 42.7128 -111.8817 302° West 438 504 31,900  Descending Salt Lake Center
Tue 10:37:55 PM 42.7775 -112.0100 305° West 433 498 32,000 49 Climbing Salt Lake Center
Tue 10:38:57 PM 42.8503 -112.1628 303° West 430 495 32,000  Level Salt Lake Center
Tue 10:39:58 PM 42.9128 -112.3017 302° West 439 505 32,000  Level Salt Lake Center
Tue 10:41:00 PM 42.9767 -112.4336 304° West 438 504 32,000  Level Salt Lake Center
Tue 10:42:02 PM 43.0494 -112.5897 303° West 435 501 32,000  Level Salt Lake Center
Tue 10:43:03 PM 43.1117 -112.7233 303° West 435 501 32,000  Level Salt Lake Center
Tue 10:44:05 PM 43.1822 -112.8794 302° West 433 498 32,000  Level Salt Lake Center
Tue 10:45:06 PM 43.2436 -113.0125 302° West 431 496 32,000  Level Salt Lake Center
Tue 10:46:08 PM 43.3058 -113.1464 303° West 433 498 32,000  Level Salt Lake Center
Tue 10:47:10 PM 43.3769 -113.3039 302° West 434 499 32,000  Level Salt Lake Center
Tue 10:48:12 PM 43.4369 -113.4386 302° West 433 498 32,000  Level Salt Lake Center
Tue 10:49:13 PM 43.5089 -113.5972 302° West 439 505 32,000  Level Salt Lake Center
Tue 10:50:14 PM 43.5689 -113.7308 302° West 432 497 32,000  Level Salt Lake Center
Tue 10:51:16 PM 43.6294 -113.8667 302° West 432 497 32,000  Level Salt Lake Center
Tue 10:52:18 PM 43.6956 -114.0150 302° West 434 499 32,000  Level Salt Lake Center
Tue 10:53:19 PM 43.7667 -114.1747 302° West 434 499 32,000 -49 Level Salt Lake Center
Tue 10:54:21 PM 43.8256 -114.3103 301° West 428 493 31,900 -49 Descending Salt Lake Center
Tue 10:55:22 PM 43.8944 -114.4672 301° West 426 490 31,900  Level Salt Lake Center
Tue 10:56:24 PM 43.9544 -114.6042 301° West 431 496 31,900 48 Level Salt Lake Center
Tue 10:57:26 PM 44.0133 -114.7394 301° West 428 493 32,000 49 Climbing Salt Lake Center
Tue 10:58:27 PM 44.0828 -114.9014 301° West 433 498 32,000  Level Salt Lake Center
Tue 10:59:29 PM 44.1422 -115.0408 301° West 437 503 32,000  Level Salt Lake Center
Tue 11:00:30 PM 44.2125 -115.2042 301° West 440 506 32,000  Level Salt Lake Center
Tue 11:01:32 PM 44.2711 -115.3419 301° West 434 499 32,000  Level Salt Lake Center
Tue 11:02:33 PM 44.3406 -115.5058 301° West 439 505 32,000  Level Salt Lake Center
Tue 11:03:35 PM 44.3989 -115.6456 300° West 438 504 32,000  Level Salt Lake Center
Tue 11:04:36 PM 44.4569 -115.7850 300° West 436 502 32,000  Level Salt Lake Center
Tue 11:05:38 PM 44.5253 -115.9461 301° West 435 501 32,000  Level Salt Lake Center
Tue 11:06:39 PM 44.5831 -116.0858 300° West 440 506 32,000  Level Salt Lake Center
Tue 11:07:40 PM 44.6492 -116.2500 300° West 439 505 32,000  Level Salt Lake Center
Tue 11:08:42 PM 44.7064 -116.3903 300° West 436 502 32,000  Level Salt Lake Center
Tue 11:09:43 PM 44.7728 -116.5536 300° West 433 498 32,000  Level Salt Lake Center
Tue 11:10:45 PM 44.8292 -116.6939 300° West 431 496 32,000  Level Salt Lake Center
Tue 11:11:17 PM 44.8661 -116.7864 299° West 428 493 32,000 -65 Level Seattle Center
Tue 11:12:18 PM 44.9222 -116.9264 300° West 427 491 31,900 -49 Descending Seattle Center
Tue 11:13:19 PM 44.9789 -117.0664 300° West 429 494 31,900 66 Level Seattle Center
Tue 11:13:49 PM 45.0067 -117.1372 299° West 431 496 32,000 66 Climbing Salt Lake Center
Tue 11:14:50 PM 45.0733 -117.3069 299° West 440 506 32,000  Level Salt Lake Center
Tue 11:15:51 PM 45.1297 -117.4506 299° West 437 503 32,000  Level Salt Lake Center
Tue 11:16:22 PM 45.1572 -117.5203 299° West 436 502 32,000  Level Seattle Center
Tue 11:17:23 PM 45.2156 -117.6700 299° West 436 502 32,000  Level Seattle Center
Tue 11:18:23 PM 45.2736 -117.8189 299° West 434 499 32,000  Level Seattle Center
Tue 11:19:24 PM 45.3314 -117.9678 299° West 434 499 32,000 -49 Level Seattle Center
Tue 11:20:25 PM 45.4036 -118.1069 307° West 437 503 31,900 -49 Descending Seattle Center
Tue 11:21:26 PM 45.4897 -118.2733 306° West 437 503 31,900 49 Level Seattle Center
Tue 11:22:27 PM 45.5606 -118.4119 306° West 436 502 32,000 49 Climbing Seattle Center
Tue 11:23:28 PM 45.6322 -118.5525 306° West 438 504 32,000  Level Seattle Center
Tue 11:24:29 PM 45.7039 -118.6908 307° West 436 502 32,000  Level Seattle Center
Tue 11:25:30 PM 45.7739 -118.8300 306° West 432 497 32,000 -50 Level Seattle Center
Tue 11:26:30 PM 45.8439 -118.9681 306° West 432 497 31,900  Descending Seattle Center
Tue 11:27:31 PM 45.9139 -119.1064 306° West 431 496 32,000 49 Climbing Seattle Center
Tue 11:28:32 PM 45.9836 -119.2442 306° West 430 495 32,000  Level Seattle Center
Tue 11:29:33 PM 46.0525 -119.3833 306° West 429 494 32,000  Level Seattle Center
Tue 11:30:34 PM 46.1206 -119.5231 305° West 431 496 32,000  Level Seattle Center
Tue 11:31:35 PM 46.1903 -119.6639 306° West 432 497 32,000  Level Seattle Center
Tue 11:32:36 PM 46.2583 -119.8025 305° West 427 491 32,000  Level Seattle Center
Tue 11:33:36 PM 46.3417 -119.9728 305° West 432 497 32,000 -50 Level Seattle Center
Tue 11:34:37 PM 46.4103 -120.1150 305° West 433 498 31,900 -492 Descending Seattle Center
Tue 11:35:38 PM 46.4781 -120.2542 305° West 429 494 31,000 -1,426 Descending Seattle Center
Tue 11:36:39 PM 46.5442 -120.3944 304° West 424 488 29,000 -2,115 Descending Seattle Center
Tue 11:37:40 PM 46.6108 -120.5311 305° West 418 481 26,700 -2,164 Descending Seattle Center
Tue 11:38:41 PM 46.6747 -120.6681 304° West 412 474 24,600 -2,115 Descending Seattle Center
Tue 11:39:42 PM 46.7386 -120.8008 305° West 404 465 22,400 -2,132 Descending Seattle Center
Tue 11:40:42 PM 46.8008 -120.9339 304° West 399 459 20,300 -2,083 Descending Seattle Center
Tue 11:41:43 PM 46.8608 -121.0625 304° West 388 447 18,200 -2,016 Descending Seattle Center
Tue 11:42:44 PM 46.9197 -121.1886 304° West 373 429 16,200 -2,108 Descending Seattle Center
Tue 11:43:34 PM 46.9775 -121.3042 306° West 353 406 14,300 -2,057 Descending Seattle Center
Tue 11:44:29 PM 47.0258 -121.4106 304° West 337 388 12,600 -1,190 Descending Seattle Center
Tue 11:45:30 PM 47.0733 -121.5144 304° West 307 353 12,000 -328 Descending Seattle Center
Tue 11:46:37 PM 47.1242 -121.6231 305° West 295 339 11,900 -850 Descending Seattle Center
Tue 11:47:37 PM 47.1633 -121.7383 297° West 289 333 10,200 -1,983 Descending Seattle Center
Tue 11:48:38 PM 47.1781 -121.8542 281° West 293 337 7,900 -1,914 Descending Seattle Center
Tue 11:49:33 PM 47.2000 -121.9564 288° West 281 323 6,500 -1,552 Descending Seattle Center
Tue 11:50:34 PM 47.2264 -122.0592 291° West 271 312 4,900 -1,475 Descending Seattle Center
Tue 11:51:35 PM 47.2497 -122.1672 288° West 272 313 3,500 -1,377 Descending Seattle Center

Login

Don't have an account? Register now (free) for customized features, flight alerts, and more!